Airfield :
LOGIN :

Register | Disclaimer

   EN    FR    IT 

 










Legend :    VFR   Marginal VFR   IFR   Intensive IFR   Very Intensive IFR
Visi :
Ceiling :
>= 8 km
>= 3000ft
5 to 8 km
1000 to 3000 ft
1500m to 5 km
500 to 1000 ft
800 to 1500m
200 to 500 ft
< 800m
< 200 ft
Symbols :   Thunderstorms  Fog  Heavy snow  Heavy precipitations  Wind > 20 kt
SIGMETs :     Misc.  Thunderstorms  Icing  Turbulence  Mountain Waves  Volcanic Ashes






- Airport Elevation : 436 ft
- IATA code : BTS


LZIB - Bratislava

CURRENT METAR :
  • 070200Z 24007KT 9999 SCT032 04/02 Q1014 NOSIG

EXPIRED METARs :
  • 070130Z 22006KT 9999 -RA SCT032 BKN049 04/02 Q1015 NOSIG
  • 070100Z 22005KT 9999 -RA SCT035 BKN048 03/02 Q1014 NOSIG
  • 070030Z 23005KT 9999 -RA SCT035 BKN042 04/01 Q1015 NOSIG
  • 070000Z 23004KT 9999 -RA FEW039 SCT042 04/01 Q1015 NOSIG
  • 062330Z 23004KT 9999 -RA FEW036 SCT044 04/02 Q1015 NOSIG

TAF TAF LZIB
Valid from the 07 at 00:00 until the 08 at 00:00 UTC


062315Z 0700/0800 24006KT 9999 FEW030 SCT040
TEMPO 0700/0703 -RA SCT009 BKN035
TEMPO 0710/0715 27019KT



MET'MAP, your aeronautical weather chart ! - Copyright ORBIFLY December 2007 - Disclaimer

ORBIFLY MET'MAP TEAM :

Programming & Development : Alexandra Zaïnal
Original concept : Baudouin d'Aumeries
Technical & hardware support : Manuel Goepfert
Assistance : Marc-Olivier Méhu




SOURCES & CREDITS :

   NOAA